Terminal Aerodrome Forecast
Issued by NWS North Platte, NE

Home | Current Version | Previous Version | Text Only | Print | Product List | Glossary Off
Versions: 1 2 3 4 5 6 7 8 9 10 11 12 13 14 15 16 17 18 19 20 21 22 23

000
FTUS43 KLBF 291700
TAFVTN
TAF
KVTN 291720Z 2918/3018 34013G21KT P6SM SKC
     FM292200 32010KT P6SM SKC
     FM300000 VRB04KT P6SM SCT250
     FM301600 20012KT P6SM SCT250=

USA.gov is the U.S. government's official web portal to all federal, state and local government web resources and services.